Time;durP1;ratioP1;P1;durP2;ratioP2;P2;SDS_P1;SDS_P2;PMS_P1;PMS_P2;Temp;Humidity;BMP_temperature;BMP_pressure;BME280_temperature;BME280_humidity;BME280_pressure;Samples;Min_cycle;Max_cycle;Signal;HPM_P1;HPM_P2
2021/03/28 00:00:52;;;;;;;3.20;2.40;;;23.30;50.30;;;;;;4994146;28;20759;-67
2021/03/28 00:03:40;;;;;;;5.00;2.47;;;23.30;50.30;;;;;;4993403;28;20424;-68
2021/03/28 00:06:36;;;;;;;3.50;1.90;;;23.30;50.30;;;;;;4992201;28;20510;-68
2021/03/28 00:09:16;;;;;;;4.80;1.87;;;23.30;50.30;;;;;;4985233;28;20416;-68
2021/03/28 00:12:18;;;;;;;3.20;2.10;;;23.30;50.30;;;;;;4993094;28;20405;-68
2021/03/28 00:14:48;;;;;;;3.90;2.20;;;23.30;50.30;;;;;;4974216;28;20397;-67
2021/03/28 00:17:19;;;;;;;3.10;1.93;;;23.30;50.40;;;;;;4973896;28;20412;-68
2021/03/28 00:20:16;;;;;;;4.40;2.20;;;23.30;50.40;;;;;;4988689;28;20543;-68
2021/03/28 00:23:01;;;;;;;4.10;2.00;;;23.30;50.30;;;;;;4973782;28;20425;-66
2021/03/28 00:25:45;;;;;;;4.77;2.33;;;23.30;50.40;;;;;;4973916;28;20491;-68
2021/03/28 00:28:46;;;;;;;3.57;1.90;;;23.30;50.40;;;;;;4989639;28;20500;-68
2021/03/28 00:31:24;;;;;;;3.60;2.10;;;23.30;50.40;;;;;;4978639;28;20515;-66
2021/03/28 00:34:13;;;;;;;4.17;2.00;;;23.30;50.40;;;;;;4993121;28;20474;-67
2021/03/28 00:36:45;;;;;;;3.67;1.90;;;23.30;50.50;;;;;;4993166;28;20420;-67
2021/03/28 00:39:16;;;;;;;2.80;2.20;;;23.30;50.40;;;;;;4991872;28;20452;-67
2021/03/28 00:41:56;;;;;;;3.00;2.17;;;23.30;50.40;;;;;;4991927;28;20779;-67
2021/03/28 00:44:22;;;;;;;2.63;1.80;;;23.30;50.40;;;;;;4991882;28;20439;-67
2021/03/28 00:46:54;;;;;;;3.93;2.27;;;23.30;50.40;;;;;;4993793;28;20486;-68
2021/03/28 00:49:37;;;;;;;3.87;2.47;;;23.30;50.40;;;;;;4996476;28;20436;-67
2021/03/28 00:52:29;;;;;;;2.93;1.80;;;23.30;50.40;;;;;;4996460;28;20420;-68
2021/03/28 00:55:11;;;;;;;2.97;2.17;;;23.30;50.50;;;;;;4996220;28;20420;-68
2021/03/28 00:57:39;;;;;;;3.90;1.80;;;23.30;50.50;;;;;;4996781;28;20926;-68
2021/03/28 01:00:20;;;;;;;3.20;1.90;;;23.30;50.50;;;;;;4996380;28;20800;-67
2021/03/28 01:03:20;;;;;;;3.43;1.93;;;23.30;50.40;;;;;;4995965;28;20817;-68
2021/03/28 01:05:49;;;;;;;3.57;2.20;;;23.30;50.50;;;;;;4996510;28;20384;-67
2021/03/28 01:08:30;;;;;;;3.43;1.60;;;23.30;50.50;;;;;;5011144;28;20505;-67
2021/03/28 01:11:35;;;;;;;3.70;2.00;;;23.30;50.50;;;;;;4996316;28;20393;-66
2021/03/28 01:14:28;;;;;;;2.27;1.70;;;23.30;50.40;;;;;;4996096;28;20947;-68
2021/03/28 01:17:23;;;;;;;2.70;1.70;;;23.30;50.50;;;;;;4994916;28;20408;-67
2021/03/28 01:20:01;;;;;;;3.57;2.30;;;23.30;50.50;;;;;;4995432;28;21028;-67
2021/03/28 01:22:51;;;;;;;2.63;1.60;;;23.30;50.50;;;;;;4995976;28;20482;-67
2021/03/28 01:25:38;;;;;;;2.70;1.87;;;23.30;50.50;;;;;;4996265;28;20828;-68
2021/03/28 01:28:25;;;;;;;3.10;1.87;;;23.30;50.50;;;;;;4994720;28;20419;-68
2021/03/28 01:30:55;;;;;;;2.37;1.50;;;23.30;50.50;;;;;;4995931;28;20396;-67
2021/03/28 01:33:29;;;;;;;3.10;2.03;;;23.30;50.50;;;;;;4995847;28;20464;-67
2021/03/28 01:36:06;;;;;;;3.30;1.60;;;23.20;50.50;;;;;;4996108;28;20393;-67
2021/03/28 01:38:41;;;;;;;3.07;1.80;;;23.20;50.50;;;;;;4995393;28;20452;-66
2021/03/28 01:41:17;;;;;;;2.67;2.13;;;23.20;50.50;;;;;;4995735;28;20455;-67
2021/03/28 01:44:07;;;;;;;2.90;1.87;;;23.20;50.50;;;;;;4995918;28;20771;-67
2021/03/28 01:46:54;;;;;;;3.80;1.50;;;23.20;50.50;;;;;;4995617;28;20416;-67
2021/03/28 01:49:44;;;;;;;3.87;2.13;;;23.10;50.40;;;;;;4995449;28;20789;-67
2021/03/28 01:52:30;;;;;;;1.93;1.40;;;23.10;50.40;;;;;;4994209;28;20417;-65
2021/03/28 01:55:35;;;;;;;2.47;1.57;;;23.10;50.40;;;;;;4995146;28;20788;-67
2021/03/28 01:58:04;;;;;;;1.70;1.43;;;23.10;50.50;;;;;;4994010;28;20456;-67
2021/03/28 02:00:47;;;;;;;2.40;1.47;;;23.10;50.50;;;;;;4995350;28;20416;-67
2021/03/28 02:03:34;;;;;;;3.77;2.30;;;23.10;50.50;;;;;;4995185;28;20561;-66
2021/03/28 02:06:24;;;;;;;3.40;1.73;;;23.10;50.50;;;;;;4995255;28;20448;-67
2021/03/28 02:09:08;;;;;;;3.77;2.17;;;23.00;50.50;;;;;;4995282;28;20407;-67
2021/03/28 02:12:04;;;;;;;1.70;1.40;;;23.00;50.50;;;;;;4994960;28;20445;-67
2021/03/28 02:14:39;;;;;;;4.07;1.93;;;23.00;50.60;;;;;;4995150;28;20396;-67
2021/03/28 02:17:32;;;;;;;3.27;1.87;;;23.00;50.60;;;;;;4995320;28;20850;-68
2021/03/28 02:20:29;;;;;;;3.43;1.80;;;23.00;50.60;;;;;;4994781;28;20451;-67
2021/03/28 02:23:11;;;;;;;4.83;1.60;;;22.90;50.50;;;;;;4995208;28;20450;-66
2021/03/28 02:25:48;;;;;;;2.17;1.80;;;22.90;50.60;;;;;;5010213;28;20408;-67
2021/03/28 02:28:33;;;;;;;3.00;1.70;;;22.90;50.60;;;;;;4994675;28;20420;-68
2021/03/28 02:31:10;;;;;;;3.30;2.13;;;22.90;50.60;;;;;;4993532;28;20422;-67
2021/03/28 02:33:54;;;;;;;3.97;1.53;;;22.90;50.70;;;;;;4994066;28;20784;-67
2021/03/28 02:36:42;;;;;;;2.10;1.50;;;22.80;50.60;;;;;;4995012;28;20702;-67
2021/03/28 02:39:13;;;;;;;2.50;1.77;;;22.90;50.70;;;;;;4994603;28;20440;-67
2021/03/28 02:41:58;;;;;;;2.80;1.40;;;22.80;50.60;;;;;;4994849;28;20415;-67
2021/03/28 02:45:01;;;;;;;2.70;1.70;;;22.80;50.70;;;;;;4994498;28;20958;-67
2021/03/28 02:47:53;;;;;;;2.20;1.30;;;22.80;50.70;;;;;;4993218;28;20498;-66
2021/03/28 02:50:46;;;;;;;1.90;1.60;;;22.80;50.70;;;;;;4993120;28;20440;-67
2021/03/28 02:53:33;;;;;;;1.80;1.47;;;22.80;50.70;;;;;;4994875;28;20424;-68
2021/03/28 02:56:16;;;;;;;2.53;1.67;;;22.80;50.80;;;;;;4994371;28;20420;-67
2021/03/28 02:59:14;;;;;;;2.50;2.10;;;22.80;50.80;;;;;;4993467;28;20563;-66
2021/03/28 03:02:06;;;;;;;2.77;2.43;;;22.70;50.70;;;;;;4994101;28;20515;-66
2021/03/28 03:04:46;;;;;;;2.40;1.33;;;22.70;51.30;;;;;;4994452;28;20471;-66
2021/03/28 03:07:51;;;;;;;2.20;1.30;;;22.70;50.80;;;;;;4994471;28;20407;-67
2021/03/28 03:10:42;;;;;;;3.10;1.70;;;22.70;50.70;;;;;;4993684;28;20444;-67
2021/03/28 03:13:14;;;;;;;2.17;1.50;;;22.70;50.80;;;;;;4993016;28;20932;-67
2021/03/28 03:15:58;;;;;;;2.30;1.50;;;22.70;50.80;;;;;;4994279;28;20921;-67
2021/03/28 03:18:35;;;;;;;2.00;1.50;;;22.70;50.80;;;;;;4993580;28;20946;-67
2021/03/28 03:21:07;;;;;;;3.60;1.87;;;22.70;50.90;;;;;;4992795;28;20420;-67
2021/03/28 03:23:59;;;;;;;2.50;1.70;;;22.70;50.90;;;;;;4994040;28;20432;-66
2021/03/28 03:26:45;;;;;;;2.07;1.30;;;22.60;50.80;;;;;;4985619;28;20460;-67
2021/03/28 03:29:48;;;;;;;2.13;1.57;;;22.70;50.90;;;;;;4993911;28;20419;-67
2021/03/28 03:32:35;;;;;;;2.13;1.40;;;22.60;50.80;;;;;;4993840;28;20427;-67
2021/03/28 03:35:19;;;;;;;1.80;1.40;;;22.60;50.90;;;;;;4993487;28;20407;-67
2021/03/28 03:38:05;;;;;;;2.33;1.43;;;22.60;50.90;;;;;;4974383;28;20388;-67
2021/03/28 03:40:38;;;;;;;2.27;1.53;;;22.60;50.90;;;;;;4974229;28;20421;-67
2021/03/28 03:43:34;;;;;;;3.10;2.50;;;22.60;50.90;;;;;;4974271;28;20821;-67
2021/03/28 03:46:04;;;;;;;2.50;1.60;;;22.60;50.90;;;;;;4974279;28;20899;-67
2021/03/28 03:49:07;;;;;;;1.87;1.50;;;22.60;51.00;;;;;;4974092;28;20781;-67
2021/03/28 03:52:03;;;;;;;3.20;1.47;;;22.50;50.80;;;;;;4974503;28;20408;-67
2021/03/28 03:54:55;;;;;;;2.20;1.50;;;22.50;50.90;;;;;;4993907;28;20385;-68
2021/03/28 03:57:47;;;;;;;2.13;1.40;;;22.50;51.00;;;;;;4992363;28;20436;-68
2021/03/28 04:00:15;;;;;;;2.33;1.70;;;22.50;51.00;;;;;;4993297;28;20447;-67
2021/03/28 04:03:05;;;;;;;1.87;1.30;;;22.50;51.10;;;;;;4993493;28;20428;-67
2021/03/28 04:05:59;;;;;;;1.73;1.30;;;22.50;51.10;;;;;;4992274;28;20771;-67
2021/03/28 04:08:52;;;;;;;1.97;1.37;;;22.40;50.90;;;;;;4993761;28;20832;-67
2021/03/28 04:11:56;;;;;;;2.00;1.50;;;22.40;51.00;;;;;;4993496;28;20901;-68
2021/03/28 04:14:49;;;;;;;1.90;1.60;;;22.40;51.00;;;;;;4974321;28;20444;-68
2021/03/28 04:17:59;;;;;;;2.00;1.53;;;22.40;51.00;;;;;;4993703;28;20456;-68
2021/03/28 04:21:23;;;;;;;2.27;1.70;;;22.40;51.00;;;;;;4988390;28;20472;-68
2021/03/28 04:24:23;;;;;;;1.60;1.30;;;22.40;51.20;;;;;;4975071;28;20436;-68
2021/03/28 04:26:54;;;;;;;2.50;1.30;;;22.40;51.10;;;;;;4997172;28;20405;-68
2021/03/28 04:29:21;;;;;;;1.77;1.20;;;22.30;51.10;;;;;;4997069;28;20487;-68
2021/03/28 04:32:02;;;;;;;1.70;1.30;;;22.30;51.10;;;;;;4997008;28;20408;-67
2021/03/28 04:34:40;;;;;;;2.10;1.33;;;22.40;51.10;;;;;;4995802;28;20407;-67
2021/03/28 04:37:19;;;;;;;2.80;1.50;;;22.40;51.10;;;;;;4996935;28;20404;-65
2021/03/28 04:39:55;;;;;;;2.50;1.30;;;22.40;51.10;;;;;;4995598;28;20571;-68
2021/03/28 04:42:44;;;;;;;2.17;1.63;;;22.40;51.10;;;;;;4996810;28;20424;-68
2021/03/28 04:45:37;;;;;;;2.00;1.20;;;22.40;51.10;;;;;;4996465;28;20791;-68
2021/03/28 04:48:21;;;;;;;2.67;1.80;;;22.40;51.00;;;;;;4996978;28;20866;-67
2021/03/28 04:51:20;;;;;;;2.27;1.33;;;22.40;51.00;;;;;;4996793;28;20407;-68
2021/03/28 04:53:51;;;;;;;2.63;1.43;;;22.40;51.00;;;;;;4995325;28;20556;-66
2021/03/28 04:56:26;;;;;;;2.17;1.40;;;22.40;51.00;;;;;;4996591;28;20451;-67
2021/03/28 04:58:51;;;;;;;1.77;1.03;;;22.40;50.90;;;;;;4996420;28;20446;-68
2021/03/28 05:01:35;;;;;;;2.13;1.03;;;22.40;50.90;;;;;;4996164;28;20506;-67
2021/03/28 05:04:06;;;;;;;2.40;1.20;;;22.50;50.90;;;;;;4996587;28;20614;-68
2021/03/28 05:07:09;;;;;;;3.00;1.50;;;22.40;50.90;;;;;;4996438;28;20540;-68
2021/03/28 05:09:51;;;;;;;1.77;1.07;;;22.50;50.90;;;;;;4996628;28;20411;-68
2021/03/28 05:12:30;;;;;;;1.73;1.10;;;22.40;50.80;;;;;;4996517;28;20431;-68
2021/03/28 05:15:13;;;;;;;1.60;1.40;;;22.50;50.90;;;;;;4996538;28;20760;-68
2021/03/28 05:17:53;;;;;;;1.93;1.00;;;22.50;50.80;;;;;;4994637;28;20417;-68
2021/03/28 05:21:00;;;;;;;2.83;1.33;;;22.50;51.00;;;;;;4996112;28;20443;-68
2021/03/28 05:24:03;;;;;;;1.57;1.00;;;22.50;50.80;;;;;;4996073;28;20420;-68
2021/03/28 05:27:00;;;;;;;2.10;1.50;;;22.50;50.80;;;;;;4996220;28;20435;-67
2021/03/28 05:29:44;;;;;;;1.80;1.10;;;22.50;50.80;;;;;;4995983;28;20416;-67
2021/03/28 05:32:25;;;;;;;1.90;1.30;;;22.50;50.80;;;;;;4995230;28;20424;-67
2021/03/28 05:35:12;;;;;;;1.87;1.23;;;22.50;50.80;;;;;;4996219;28;20404;-67
2021/03/28 05:38:03;;;;;;;2.37;1.37;;;22.50;50.80;;;;;;4995847;28;20519;-67
2021/03/28 05:41:02;;;;;;;1.50;1.10;;;22.50;50.70;;;;;;4995704;28;20476;-67
2021/03/28 05:44:06;;;;;;;1.80;1.30;;;22.50;50.70;;;;;;4995683;28;20432;-67
2021/03/28 05:46:51;;;;;;;1.70;1.23;;;22.50;50.80;;;;;;4995269;28;20420;-67
2021/03/28 05:49:35;;;;;;;2.30;1.40;;;22.50;50.80;;;;;;4995743;28;20435;-67
2021/03/28 05:52:22;;;;;;;2.70;1.20;;;22.40;50.70;;;;;;4995810;28;20548;-67
2021/03/28 05:55:09;;;;;;;2.10;1.20;;;22.50;50.70;;;;;;4995441;28;20419;-66
2021/03/28 05:57:43;;;;;;;1.80;1.30;;;22.50;50.70;;;;;;4995500;28;20400;-67
2021/03/28 06:00:30;;;;;;;2.30;1.30;;;22.50;50.80;;;;;;4995309;28;20476;-67
2021/03/28 06:03:25;;;;;;;2.20;1.40;;;22.50;50.70;;;;;;4995109;28;20463;-66
2021/03/28 06:06:26;;;;;;;1.80;1.00;;;22.50;50.70;;;;;;4995382;28;20884;-67
2021/03/28 06:09:24;;;;;;;2.50;1.30;;;22.50;50.70;;;;;;4995613;28;20756;-67
2021/03/28 06:12:11;;;;;;;1.93;1.20;;;22.50;50.80;;;;;;4985251;28;20965;-67
2021/03/28 06:14:47;;;;;;;1.77;1.13;;;22.50;50.80;;;;;;4995239;28;20399;-67
2021/03/28 06:17:50;;;;;;;2.00;1.20;;;22.50;50.80;;;;;;4993897;28;20431;-67
2021/03/28 06:20:28;;;;;;;1.90;1.20;;;22.50;50.70;;;;;;4994629;28;20475;-67
2021/03/28 06:23:26;;;;;;;2.40;1.20;;;22.50;50.70;;;;;;4995053;28;20431;-67
2021/03/28 06:26:06;;;;;;;1.70;1.30;;;22.50;50.70;;;;;;4994907;28;20404;-66
2021/03/28 06:29:05;;;;;;;1.57;0.97;;;22.50;50.70;;;;;;4994928;28;20424;-67
2021/03/28 06:31:55;;;;;;;1.60;1.13;;;22.50;50.70;;;;;;4993644;28;20419;-68
2021/03/28 06:34:24;;;;;;;1.60;1.20;;;22.50;50.70;;;;;;4993533;28;20512;-68
2021/03/28 06:37:02;;;;;;;1.97;1.00;;;22.50;50.70;;;;;;4993078;28;20427;-67
2021/03/28 06:39:33;;;;;;;2.40;1.30;;;22.50;50.70;;;;;;4993148;28;20579;-67
2021/03/28 06:42:14;;;;;;;1.40;1.10;;;22.50;50.70;;;;;;4994682;28;20408;-67
2021/03/28 06:45:17;;;;;;;2.73;1.83;;;22.50;50.70;;;;;;4992753;28;20412;-67
2021/03/28 06:48:05;;;;;;;1.80;1.20;;;22.50;50.70;;;;;;4994463;28;20496;-67
2021/03/28 06:50:52;;;;;;;1.73;1.13;;;22.50;50.70;;;;;;4993131;28;20440;-67
2021/03/28 06:54:01;;;;;;;1.47;1.00;;;22.50;50.70;;;;;;4994008;28;20448;-67
2021/03/28 06:56:45;;;;;;;1.30;1.00;;;22.50;50.60;;;;;;4994518;28;20494;-68
2021/03/28 06:59:28;;;;;;;2.17;1.13;;;22.60;50.70;;;;;;4994239;28;20455;-67
2021/03/28 07:02:03;;;;;;;1.60;1.20;;;22.50;50.70;;;;;;4993026;28;20474;-67
2021/03/28 07:04:56;;;;;;;1.50;1.00;;;22.50;50.70;;;;;;4994236;28;20443;-68
2021/03/28 07:07:44;;;;;;;1.40;1.00;;;22.60;50.70;;;;;;4993858;28;20417;-67
2021/03/28 07:10:30;;;;;;;1.70;1.40;;;22.50;50.70;;;;;;4992887;28;20427;-66
2021/03/28 07:13:11;;;;;;;2.00;1.10;;;22.50;50.60;;;;;;4994044;28;20432;-67
2021/03/28 07:15:55;;;;;;;1.30;0.90;;;22.50;50.70;;;;;;4994088;28;20778;-67
2021/03/28 07:18:32;;;;;;;1.40;1.00;;;22.50;50.70;;;;;;4994082;28;20422;-67
2021/03/28 07:21:24;;;;;;;1.50;1.10;;;22.50;50.70;;;;;;4993968;28;20428;-67
2021/03/28 07:24:27;;;;;;;1.87;1.20;;;22.50;50.70;;;;;;4993667;28;20444;-67
2021/03/28 07:27:25;;;;;;;1.70;1.10;;;22.50;50.70;;;;;;4993931;28;20400;-67
2021/03/28 07:30:09;;;;;;;1.30;1.10;;;22.50;50.70;;;;;;4989940;28;20946;-68
2021/03/28 07:33:05;;;;;;;2.27;1.20;;;22.50;50.70;;;;;;4993909;28;20507;-67
2021/03/28 07:35:52;;;;;;;1.40;1.00;;;22.50;50.70;;;;;;4993768;28;20396;-67
2021/03/28 07:38:56;;;;;;;1.70;1.20;;;22.50;50.70;;;;;;4994154;28;20937;-66
2021/03/28 07:41:21;;;;;;;1.93;1.57;;;22.50;50.70;;;;;;4993445;28;20511;-65
2021/03/28 07:44:05;;;;;;;1.30;1.00;;;22.50;50.70;;;;;;4993876;28;21046;-66
2021/03/28 07:46:49;;;;;;;3.77;1.10;;;22.50;50.70;;;;;;4993976;28;20157;-66
2021/03/28 07:49:36;;;;;;;3.30;1.30;;;22.50;50.70;;;;;;4992704;28;21040;-66
2021/03/28 07:52:18;;;;;;;1.53;1.43;;;22.50;50.70;;;;;;4993531;28;20471;-66
2021/03/28 07:55:08;;;;;;;1.50;1.00;;;22.50;50.80;;;;;;4993727;28;20408;-66
2021/03/28 07:57:53;;;;;;;2.43;1.07;;;22.50;50.70;;;;;;4997403;28;20403;-66
2021/03/28 08:00:48;;;;;;;2.00;1.53;;;22.50;50.70;;;;;;4997573;28;20436;-66
2021/03/28 08:03:41;;;;;;;2.73;1.13;;;22.50;50.70;;;;;;4997489;28;20423;-66
2021/03/28 08:06:10;;;;;;;1.73;1.20;;;22.50;50.70;;;;;;4997859;28;20385;-65
2021/03/28 08:08:38;;;;;;;1.87;1.03;;;22.50;50.70;;;;;;4996243;28;20416;-66
2021/03/28 08:11:43;;;;;;;2.30;1.27;;;22.50;50.70;;;;;;4997733;28;20900;-66
2021/03/28 08:14:35;;;;;;;2.10;1.23;;;22.60;50.80;;;;;;4997202;28;20430;-67
2021/03/28 08:17:30;;;;;;;3.47;1.20;;;22.60;50.80;;;;;;4977841;28;20421;-67
2021/03/28 08:20:21;;;;;;;2.17;1.40;;;22.60;50.80;;;;;;4977830;28;20476;-66
2021/03/28 08:23:24;;;;;;;1.83;1.20;;;22.50;50.70;;;;;;4976500;28;20563;-66
2021/03/28 08:26:11;;;;;;;1.87;1.17;;;22.50;50.70;;;;;;4977734;28;20397;-65
2021/03/28 08:29:13;;;;;;;3.00;1.63;;;22.50;50.70;;;;;;4977674;28;20393;-66
2021/03/28 08:31:56;;;;;;;2.63;1.23;;;22.60;50.80;;;;;;4979470;28;20508;-66
2021/03/28 08:34:46;;;;;;;2.90;1.20;;;22.50;50.70;;;;;;4997324;28;20392;-66
2021/03/28 08:37:42;;;;;;;2.97;1.07;;;22.60;50.80;;;;;;4997514;28;20892;-66
2021/03/28 08:40:24;;;;;;;2.37;1.23;;;22.60;50.80;;;;;;4996807;28;20454;-66
2021/03/28 08:43:18;;;;;;;2.57;1.20;;;22.60;50.70;;;;;;4997034;28;20427;-66
2021/03/28 08:46:21;;;;;;;1.87;1.37;;;22.60;50.70;;;;;;4996799;28;20384;-65
2021/03/28 08:48:47;;;;;;;1.90;1.30;;;22.60;50.70;;;;;;4996611;28;20550;-66
2021/03/28 08:51:21;;;;;;;3.67;1.43;;;22.60;50.70;;;;;;4997012;28;20467;-66
2021/03/28 08:54:30;;;;;;;3.83;1.40;;;22.60;50.70;;;;;;4996599;28;20200;-66
2021/03/28 08:57:19;;;;;;;4.47;1.40;;;22.60;50.70;;;;;;4996216;28;20415;-66
2021/03/28 08:59:53;;;;;;;1.17;0.90;;;22.60;50.80;;;;;;4995135;28;20970;-65
2021/03/28 09:02:28;;;;;;;1.60;1.40;;;22.60;50.80;;;;;;4996563;28;20423;-66
2021/03/28 09:05:27;;;;;;;2.57;1.50;;;22.60;50.70;;;;;;4996747;28;20408;-66
2021/03/28 09:08:10;;;;;;;1.90;1.30;;;22.60;50.70;;;;;;4975114;28;20421;-66
2021/03/28 09:10:57;;;;;;;2.60;1.20;;;22.60;50.80;;;;;;4976938;28;20394;-66
2021/03/28 09:13:31;;;;;;;2.10;1.17;;;22.60;50.70;;;;;;4976788;28;20440;-66
2021/03/28 09:16:12;;;;;;;1.37;0.97;;;22.60;50.70;;;;;;4975545;28;20512;-67
2021/03/28 09:18:46;;;;;;;1.67;1.13;;;22.60;50.70;;;;;;4977019;28;20401;-65
2021/03/28 09:21:23;;;;;;;2.30;1.30;;;22.60;50.70;;;;;;4975435;28;20425;-66
2021/03/28 09:24:02;;;;;;;2.13;1.20;;;22.60;50.70;;;;;;4991557;28;21016;-66
2021/03/28 09:26:57;;;;;;;1.87;1.10;;;22.60;50.70;;;;;;4996075;28;20392;-65
2021/03/28 09:29:34;;;;;;;1.10;0.90;;;22.60;50.70;;;;;;4987191;28;20775;-66
2021/03/28 09:32:30;;;;;;;2.93;1.13;;;22.60;50.70;;;;;;4996132;28;20483;-66
2021/03/28 09:35:17;;;;;;;2.20;1.10;;;22.60;50.70;;;;;;4996246;28;20480;-66
2021/03/28 09:37:48;;;;;;;1.43;1.10;;;22.60;50.70;;;;;;4995826;28;20499;-66
2021/03/28 09:40:49;;;;;;;1.63;1.10;;;22.60;50.70;;;;;;4995452;28;20452;-66
2021/03/28 09:44:00;;;;;;;2.67;1.30;;;22.60;50.60;;;;;;4974377;28;20862;-66
2021/03/28 09:47:01;;;;;;;1.90;1.50;;;22.60;50.60;;;;;;4995941;28;20840;-66
2021/03/28 09:49:47;;;;;;;2.23;1.20;;;22.60;50.70;;;;;;4995857;28;20896;-66
2021/03/28 09:52:46;;;;;;;1.90;1.07;;;22.60;50.70;;;;;;4995862;28;20407;-66
2021/03/28 09:55:32;;;;;;;2.60;1.20;;;22.60;50.70;;;;;;4995609;28;20907;-67
2021/03/28 09:58:24;;;;;;;2.73;2.30;;;22.60;50.70;;;;;;4995192;28;20416;-65
2021/03/28 10:01:18;;;;;;;1.80;1.20;;;22.60;50.60;;;;;;4995783;28;20462;-66
2021/03/28 10:03:50;;;;;;;1.40;1.10;;;22.60;50.60;;;;;;4995347;28;20428;-66
2021/03/28 10:06:19;;;;;;;2.53;1.40;;;22.60;51.20;;;;;;4995348;28;20393;-66
2021/03/28 10:08:56;;;;;;;1.70;1.10;;;22.60;50.60;;;;;;4995282;28;20412;-67
2021/03/28 10:11:48;;;;;;;2.70;1.20;;;22.60;50.60;;;;;;4995275;28;20392;-66
2021/03/28 10:14:30;;;;;;;1.90;1.20;;;22.60;50.60;;;;;;4993565;28;20872;-66
2021/03/28 10:17:22;;;;;;;2.10;1.33;;;22.60;50.60;;;;;;4995179;28;20393;-66
2021/03/28 10:19:53;;;;;;;1.60;1.17;;;22.60;50.60;;;;;;4992832;28;21013;-66
2021/03/28 10:22:32;;;;;;;1.20;0.90;;;22.60;50.60;;;;;;4995213;28;20795;-66
2021/03/28 10:25:19;;;;;;;1.77;1.27;;;22.60;50.50;;;;;;4993819;28;20405;-65
2021/03/28 10:27:59;;;;;;;2.70;1.30;;;22.60;50.60;;;;;;4994893;28;20799;-66
2021/03/28 10:30:25;;;;;;;3.23;1.47;;;22.60;50.60;;;;;;4994862;28;20416;-66
2021/03/28 10:33:12;;;;;;;2.60;1.20;;;22.60;50.70;;;;;;4994747;28;20440;-65
2021/03/28 10:35:56;;;;;;;1.90;1.10;;;22.60;50.60;;;;;;4994708;28;20203;-66
2021/03/28 10:38:59;;;;;;;2.80;1.10;;;22.60;50.70;;;;;;4993377;28;20427;-64
2021/03/28 10:41:47;;;;;;;1.87;1.07;;;22.50;50.70;;;;;;4994714;28;20451;-66
2021/03/28 10:44:47;;;;;;;2.13;1.50;;;22.60;50.80;;;;;;4994309;28;20452;-65
2021/03/28 10:47:32;;;;;;;2.37;1.30;;;22.50;50.70;;;;;;4994589;28;20419;-66
2021/03/28 10:50:30;;;;;;;2.33;1.40;;;22.50;50.80;;;;;;4993485;28;20440;-66
2021/03/28 10:53:26;;;;;;;3.57;1.53;;;22.50;50.80;;;;;;4994375;28;20475;-66
2021/03/28 10:55:54;;;;;;;2.50;1.30;;;22.50;50.80;;;;;;4994476;28;20892;-66
2021/03/28 10:58:29;;;;;;;2.63;1.23;;;22.50;50.80;;;;;;4993150;28;20448;-65
2021/03/28 11:01:13;;;;;;;2.50;1.47;;;22.50;50.80;;;;;;4995716;28;20441;-67
2021/03/28 11:04:15;;;;;;;2.27;1.43;;;22.50;50.80;;;;;;4994028;28;20459;-68
2021/03/28 11:07:06;;;;;;;1.87;1.10;;;22.50;50.80;;;;;;4994651;28;20395;-67
2021/03/28 11:09:51;;;;;;;2.80;1.47;;;22.50;50.80;;;;;;4994509;28;20429;-67
2021/03/28 11:12:54;;;;;;;2.50;1.10;;;22.50;50.90;;;;;;4994474;28;20840;-66
2021/03/28 11:15:44;;;;;;;4.00;2.10;;;22.50;50.70;;;;;;4994259;28;20420;-67
2021/03/28 11:18:37;;;;;;;2.30;1.40;;;22.50;50.40;;;;;;4993052;28;20949;-67
2021/03/28 11:21:06;;;;;;;3.67;1.67;;;22.50;50.20;;;;;;4988852;28;20507;-67
2021/03/28 11:23:56;;;;;;;2.10;1.17;;;22.40;49.80;;;;;;4990354;28;20437;-67
2021/03/28 11:26:49;;;;;;;2.33;1.83;;;22.50;49.60;;;;;;4993820;28;20934;-66
2021/03/28 11:29:37;;;;;;;1.93;1.57;;;22.50;49.30;;;;;;4993464;28;20789;-67
2021/03/28 11:32:15;;;;;;;4.63;1.40;;;22.40;49.10;;;;;;4993855;28;20423;-67
2021/03/28 11:35:01;;;;;;;3.53;1.50;;;22.40;48.80;;;;;;4992744;28;20440;-66
2021/03/28 11:38:14;;;;;;;1.77;1.20;;;22.40;48.90;;;;;;4988735;28;20419;-67
2021/03/28 11:40:40;;;;;;;4.90;1.40;;;22.40;48.80;;;;;;4993197;28;20511;-66
2021/03/28 11:43:10;;;;;;;2.53;1.40;;;22.40;48.60;;;;;;4993580;28;20506;-67
2021/03/28 11:45:46;;;;;;;2.73;1.17;;;22.40;48.60;;;;;;4992373;28;20412;-67
2021/03/28 11:48:21;;;;;;;3.27;1.53;;;22.40;48.80;;;;;;4993694;28;20487;-66
2021/03/28 11:50:48;;;;;;;2.90;1.23;;;22.40;48.90;;;;;;4993263;28;20419;-66
2021/03/28 11:53:28;;;;;;;3.20;1.40;;;22.40;49.10;;;;;;4993556;28;20412;-67
2021/03/28 11:55:58;;;;;;;3.03;1.20;;;22.40;49.20;;;;;;4993690;28;20804;-67
2021/03/28 11:58:38;;;;;;;2.60;1.20;;;22.40;49.20;;;;;;4994069;28;20405;-67
2021/03/28 12:01:04;;;;;;;3.10;1.70;;;22.40;49.30;;;;;;4993554;28;20418;-66
2021/03/28 12:03:40;;;;;;;1.77;1.30;;;22.40;49.40;;;;;;4993498;28;20428;-67
2021/03/28 12:06:16;;;;;;;1.90;1.40;;;22.40;49.40;;;;;;4993502;28;20477;-67
2021/03/28 12:08:45;;;;;;;2.70;1.30;;;22.40;49.50;;;;;;4974369;28;20397;-68
2021/03/28 12:11:35;;;;;;;3.23;1.70;;;22.40;49.50;;;;;;4974094;28;20401;-67
2021/03/28 12:14:13;;;;;;;1.93;1.20;;;22.40;49.50;;;;;;4973956;28;20500;-68
2021/03/28 12:17:09;;;;;;;2.80;1.27;;;22.40;49.60;;;;;;4973906;28;20405;-67
2021/03/28 12:19:52;;;;;;;1.30;1.10;;;22.40;49.60;;;;;;4974112;28;20449;-67
2021/03/28 12:22:44;;;;;;;2.57;1.60;;;22.40;49.60;;;;;;4973912;28;20428;-67
2021/03/28 12:25:18;;;;;;;4.50;1.53;;;22.40;49.70;;;;;;4972129;28;20576;-65
2021/03/28 12:27:55;;;;;;;3.13;1.37;;;22.40;50.30;;;;;;4974047;28;20780;-67
2021/03/28 12:30:42;;;;;;;3.83;1.40;;;22.40;49.70;;;;;;4976529;28;20486;-66
2021/03/28 12:33:10;;;;;;;1.73;1.50;;;22.40;49.70;;;;;;4993230;28;20428;-67
2021/03/28 12:35:39;;;;;;;2.87;1.30;;;22.40;49.80;;;;;;4993218;28;20408;-67
2021/03/28 12:38:28;;;;;;;2.97;1.33;;;22.40;49.80;;;;;;4992924;28;20428;-66
2021/03/28 12:41:12;;;;;;;3.73;1.50;;;22.40;49.70;;;;;;4989637;28;20436;-67
2021/03/28 12:44:06;;;;;;;4.17;1.53;;;22.40;49.80;;;;;;4996764;28;20431;-67
2021/03/28 12:46:58;;;;;;;5.00;1.30;;;22.40;49.80;;;;;;4988913;28;20423;-67
2021/03/28 12:49:43;;;;;;;2.63;1.60;;;22.40;49.90;;;;;;4994198;28;20523;-66
2021/03/28 12:52:11;;;;;;;3.27;1.87;;;22.40;49.90;;;;;;4996926;28;20898;-67
2021/03/28 12:54:57;;;;;;;4.10;1.27;;;22.40;49.90;;;;;;4996131;28;20800;-67
2021/03/28 12:57:34;;;;;;;3.83;1.63;;;22.40;49.80;;;;;;4997261;28;20411;-67
2021/03/28 13:00:14;;;;;;;2.87;1.50;;;22.40;49.90;;;;;;4996814;28;20867;-67
2021/03/28 13:02:41;;;;;;;3.07;1.50;;;22.40;49.90;;;;;;4996765;28;20448;-67
2021/03/28 13:05:22;;;;;;;3.13;1.37;;;22.40;50.40;;;;;;4996425;28;20424;-67
2021/03/28 13:07:53;;;;;;;3.40;1.60;;;22.40;49.90;;;;;;4996385;28;20415;-67
2021/03/28 13:10:31;;;;;;;2.23;1.20;;;22.40;49.90;;;;;;4996458;28;20443;-67
2021/03/28 13:13:02;;;;;;;3.33;1.33;;;22.40;49.90;;;;;;4995903;28;20950;-66
2021/03/28 13:15:48;;;;;;;2.53;1.30;;;22.40;49.90;;;;;;4996298;28;20430;-67
2021/03/28 13:18:32;;;;;;;4.73;2.00;;;22.40;49.90;;;;;;4994985;28;20426;-67
2021/03/28 13:21:11;;;;;;;4.33;1.33;;;22.40;49.90;;;;;;4996149;28;20915;-67
2021/03/28 13:23:47;;;;;;;5.90;2.00;;;22.40;49.90;;;;;;4996366;28;20793;-66
2021/03/28 13:26:18;;;;;;;5.23;1.60;;;22.40;50.00;;;;;;4996112;28;20392;-67
2021/03/28 13:29:21;;;;;;;4.30;1.63;;;22.40;49.90;;;;;;4995777;28;20425;-67
2021/03/28 13:31:56;;;;;;;2.13;1.53;;;22.40;49.90;;;;;;4996017;28;20495;-67
2021/03/28 13:34:51;;;;;;;5.07;2.20;;;22.40;50.00;;;;;;4996176;28;20494;-67
2021/03/28 13:37:23;;;;;;;4.17;1.47;;;22.40;50.00;;;;;;4996153;28;20750;-66
2021/03/28 13:40:16;;;;;;;3.90;1.77;;;22.40;50.00;;;;;;4995768;28;20451;-67
2021/03/28 13:42:50;;;;;;;5.87;2.17;;;22.40;50.00;;;;;;4995826;28;20771;-67
2021/03/28 13:45:21;;;;;;;3.83;1.70;;;22.40;49.90;;;;;;4995527;28;20512;-67
2021/03/28 13:47:56;;;;;;;4.33;1.70;;;22.40;50.00;;;;;;4995771;28;20407;-67
2021/03/28 13:50:28;;;;;;;3.67;1.70;;;22.40;49.90;;;;;;4994357;28;20447;-67
2021/03/28 13:52:55;;;;;;;3.17;1.80;;;22.40;49.90;;;;;;4995474;28;20424;-67
2021/03/28 13:55:46;;;;;;;3.80;1.90;;;22.40;49.90;;;;;;4995569;28;20913;-67
2021/03/28 13:58:17;;;;;;;2.30;1.60;;;22.40;49.90;;;;;;4996120;28;20480;-67
2021/03/28 14:00:45;;;;;;;5.10;2.27;;;22.40;49.90;;;;;;4995328;28;20511;-68
2021/03/28 14:03:28;;;;;;;3.90;1.80;;;22.40;49.90;;;;;;4994852;28;21002;-67
2021/03/28 14:05:54;;;;;;;4.23;1.97;;;22.40;49.90;;;;;;4995447;28;20768;-67
2021/03/28 14:08:26;;;;;;;4.70;1.70;;;22.50;50.00;;;;;;4995318;28;20431;-67
2021/03/28 14:10:59;;;;;;;5.80;1.80;;;22.40;49.90;;;;;;4995317;28;20393;-67
2021/03/28 14:13:33;;;;;;;3.63;2.80;;;22.40;49.90;;;;;;5010212;28;20494;-67
2021/03/28 14:16:01;;;;;;;5.07;1.90;;;22.40;49.90;;;;;;4995164;28;20397;-65
2021/03/28 14:18:54;;;;;;;2.77;2.13;;;22.40;49.90;;;;;;4994648;28;20775;-67